Time;durP1;ratioP1;P1;durP2;ratioP2;P2;SDS_P1;SDS_P2;PMS_P1;PMS_P2;Temp;Humidity;BMP_temperature;BMP_pressure;BME280_temperature;BME280_humidity;BME280_pressure;Samples;Min_cycle;Max_cycle;Signal;HPM_P1;HPM_P2
2022/09/03 00:00:55;;;;;;;1.90;1.50;;;;;;;9.76;86.27;97640.28;6232609;28;20243;-66
2022/09/03 00:04:02;;;;;;;2.27;1.60;;;;;;;9.78;86.51;97647.09;6231430;28;20246;-66
2022/09/03 00:07:16;;;;;;;3.20;1.60;;;;;;;9.83;85.93;97649.38;6232161;28;20233;-66
2022/09/03 00:10:31;;;;;;;2.77;1.90;;;;;;;9.83;86.17;97644.94;6214398;28;20287;-66
2022/09/03 00:13:37;;;;;;;1.47;1.37;;;;;;;9.83;85.91;97644.09;6230720;28;20235;-66
2022/09/03 00:16:51;;;;;;;3.67;1.60;;;;;;;9.78;86.24;97652.34;6214378;28;20731;-66
2022/09/03 00:20:09;;;;;;;2.67;1.97;;;;;;;9.67;86.13;97646.25;6231337;28;20721;-66
2022/09/03 00:23:20;;;;;;;1.60;1.50;;;;;;;9.61;86.45;97645.75;6230745;28;20374;-66
2022/09/03 00:26:33;;;;;;;3.80;1.80;;;;;;;9.67;86.86;97649.75;6231068;28;20262;-66
2022/09/03 00:30:04;;;;;;;2.30;1.60;;;;;;;9.69;86.51;97645.16;6214928;28;20258;-66
2022/09/03 00:33:12;;;;;;;2.20;1.77;;;;;;;9.58;86.38;97650.44;6230147;28;20641;-66
2022/09/03 00:36:19;;;;;;;2.40;1.50;;;;;;;9.59;86.51;97650.31;6230534;28;20702;-65
2022/09/03 00:39:25;;;;;;;4.20;1.90;;;;;;;9.59;86.39;97649.47;6214422;28;20868;-66
2022/09/03 00:43:00;;;;;;;2.60;1.60;;;;;;;9.54;86.64;97647.19;6229266;28;20221;-66
2022/09/03 00:46:17;;;;;;;1.90;1.63;;;;;;;9.50;87.80;97647.53;6213049;28;20328;-66
2022/09/03 00:49:29;;;;;;;1.77;1.67;;;;;;;9.48;87.17;97644.22;6235514;28;20736;-66
2022/09/03 00:52:56;;;;;;;2.97;1.80;;;;;;;9.46;87.15;97646.94;6209009;28;20326;-66
2022/09/03 00:56:26;;;;;;;2.10;1.60;;;;;;;9.42;88.05;97642.88;6198925;28;20308;-66
2022/09/03 00:59:41;;;;;;;3.23;1.67;;;;;;;9.40;88.05;97650.03;6230191;28;20934;-66
2022/09/03 01:03:04;;;;;;;2.03;1.70;;;;;;;9.40;87.93;97651.81;6206202;28;20237;-66
2022/09/03 01:06:21;;;;;;;2.87;1.90;;;;;;;9.38;88.14;97651.97;6228215;28;20275;-66
2022/09/03 01:09:30;;;;;;;2.67;1.67;;;;;;;9.35;88.06;97648.72;6230149;28;20335;-66
2022/09/03 01:12:46;;;;;;;2.20;1.60;;;;;;;9.32;88.07;97652.41;6230013;28;20228;-66
2022/09/03 01:15:57;;;;;;;1.60;1.50;;;;;;;9.33;88.17;97648.81;6230200;28;20253;-66
2022/09/03 01:19:08;;;;;;;2.60;1.60;;;;;;;9.38;88.57;97657.25;6230414;28;20260;-66
2022/09/03 01:22:41;;;;;;;2.73;1.50;;;;;;;9.37;88.41;97649.44;6230300;28;20228;-66
2022/09/03 01:26:13;;;;;;;2.23;1.60;;;;;;;9.32;87.67;97652.41;6211584;28;20323;-66
2022/09/03 01:29:34;;;;;;;1.60;1.30;;;;;;;9.29;88.47;97660.53;6229185;28;20231;-66
2022/09/03 01:32:49;;;;;;;2.07;1.40;;;;;;;9.25;87.98;97651.22;6230643;28;20298;-66
2022/09/03 01:36:41;;;;;;;1.70;1.60;;;;;;;9.27;88.11;97636.13;6229121;28;20608;-66
2022/09/03 01:39:48;;;;;;;3.13;1.70;;;;;;;9.22;88.23;97651.44;6138442;28;20256;-66
2022/09/03 01:43:34;;;;;;;2.87;1.80;;;;;;;9.27;88.25;97648.47;6211310;28;20679;-66
2022/09/03 01:46:44;;;;;;;3.27;1.70;;;;;;;9.17;88.68;97643.91;6212517;28;20638;-66
2022/09/03 01:50:00;;;;;;;1.67;1.57;;;;;;;9.07;88.93;97642.91;6228841;28;20238;-66
2022/09/03 01:53:24;;;;;;;3.17;1.60;;;;;;;9.08;89.19;97641.13;6228917;28;20363;-66
2022/09/03 01:56:50;;;;;;;2.40;2.20;;;;;;;9.12;88.87;97632.00;6203710;28;20229;-66
2022/09/03 02:00:06;;;;;;;5.43;1.97;;;;;;;9.08;89.37;97641.94;6205459;28;20670;-66
2022/09/03 02:03:15;;;;;;;2.20;2.00;;;;;;;9.02;90.33;97637.13;6187489;28;20610;-66
2022/09/03 02:06:19;;;;;;;2.30;1.77;;;;;;;9.07;89.51;97642.06;6229541;28;20757;-66
2022/09/03 02:09:21;;;;;;;3.77;2.00;;;;;;;9.08;90.22;97641.94;6211074;28;20246;-66
2022/09/03 02:12:31;;;;;;;2.70;1.80;;;;;;;9.03;90.03;97635.34;6229928;28;20239;-65
2022/09/03 02:15:37;;;;;;;2.50;2.10;;;;;;;9.01;90.02;97645.13;6228506;28;20727;-66
2022/09/03 02:18:46;;;;;;;2.53;1.63;;;;;;;9.03;90.51;97643.22;6228492;28;20436;-65
2022/09/03 02:21:52;;;;;;;1.97;1.77;;;;;;;9.04;90.35;97637.84;6212010;28;20232;-66
2022/09/03 02:24:54;;;;;;;2.13;1.93;;;;;;;9.01;90.01;97655.66;6227642;28;20232;-66
2022/09/03 02:27:57;;;;;;;3.63;1.80;;;;;;;8.96;90.20;97645.50;6228580;28;20297;-66
2022/09/03 02:30:59;;;;;;;2.73;2.10;;;;;;;8.93;89.98;97656.25;6229209;28;20236;-66
2022/09/03 02:34:01;;;;;;;3.63;2.10;;;;;;;8.94;90.91;97643.91;6229611;28;20265;-66
2022/09/03 02:37:11;;;;;;;3.10;1.73;;;;;;;8.91;90.87;97652.88;6228366;28;20231;-66
2022/09/03 02:40:13;;;;;;;4.03;1.90;;;;;;;8.92;90.87;97644.03;6211441;28;20239;-65
2022/09/03 02:43:41;;;;;;;2.60;1.87;;;;;;;8.89;90.89;97652.97;6228722;28;20607;-66
2022/09/03 02:46:52;;;;;;;1.77;1.50;;;;;;;8.90;90.88;97645.94;6194652;28;20604;-66
2022/09/03 02:49:54;;;;;;;1.77;1.63;;;;;;;8.89;90.94;97650.34;6228563;28;20370;-66
2022/09/03 02:52:58;;;;;;;3.00;1.67;;;;;;;8.88;91.39;97640.78;6229761;28;20234;-66
2022/09/03 02:56:01;;;;;;;4.80;2.13;;;;;;;8.84;91.12;97631.44;6194004;28;20228;-66
2022/09/03 02:59:05;;;;;;;2.63;1.93;;;;;;;8.77;91.13;97635.50;6228761;28;20309;-66
2022/09/03 03:02:07;;;;;;;1.87;1.60;;;;;;;8.71;91.30;97637.72;6228751;28;20700;-66
2022/09/03 03:05:18;;;;;;;2.70;1.80;;;;;;;8.69;91.27;97636.97;6228642;28;20231;-66
2022/09/03 03:08:26;;;;;;;3.07;1.70;;;;;;;8.65;91.53;97636.38;6227212;28;20235;-66
2022/09/03 03:11:29;;;;;;;2.23;1.70;;;;;;;8.62;91.95;97633.97;6229174;28;20231;-66
2022/09/03 03:14:31;;;;;;;3.30;1.90;;;;;;;8.59;91.49;97638.59;6227695;28;20721;-66
2022/09/03 03:17:33;;;;;;;2.00;1.70;;;;;;;8.55;91.35;97642.44;6227921;28;20677;-66
2022/09/03 03:20:35;;;;;;;2.10;1.87;;;;;;;8.54;92.14;97638.97;6212228;28;20315;-66
2022/09/03 03:23:38;;;;;;;4.43;1.77;;;;;;;8.53;91.79;97639.91;6231485;28;20242;-66
2022/09/03 03:26:40;;;;;;;3.03;1.90;;;;;;;8.52;91.53;97638.22;6233072;28;20318;-66
2022/09/03 03:29:42;;;;;;;2.40;1.90;;;;;;;8.53;91.52;97639.91;6232784;28;20611;-66
2022/09/03 03:32:44;;;;;;;2.20;1.80;;;;;;;8.57;92.14;97633.47;6232107;28;20263;-66
2022/09/03 03:35:46;;;;;;;3.73;2.20;;;;;;;8.55;92.14;97624.84;6215350;28;20297;-66
2022/09/03 03:38:48;;;;;;;2.83;1.90;;;;;;;8.57;91.70;97632.63;6232079;28;20232;-66
2022/09/03 03:41:51;;;;;;;2.57;2.20;;;;;;;8.57;91.75;97630.00;6232207;28;20373;-67
2022/09/03 03:44:54;;;;;;;2.20;1.70;;;;;;;8.57;91.43;97633.47;6232722;28;20342;-66
2022/09/03 03:47:58;;;;;;;2.60;1.70;;;;;;;8.57;91.41;97637.91;6231517;28;20236;-66
2022/09/03 03:51:06;;;;;;;2.70;1.63;;;;;;;8.56;90.84;97638.84;6232297;28;20370;-66
2022/09/03 03:54:08;;;;;;;1.87;1.60;;;;;;;8.54;90.98;97638.97;6231904;28;20220;-66
2022/09/03 03:57:10;;;;;;;3.17;2.00;;;;;;;8.50;91.07;97640.13;6234746;28;20299;-66
2022/09/03 04:00:13;;;;;;;2.20;1.87;;;;;;;8.53;91.00;97645.16;6235701;28;20221;-66
2022/09/03 04:03:15;;;;;;;1.90;1.70;;;;;;;8.50;91.46;97643.59;6235586;28;20318;-66
2022/09/03 04:06:18;;;;;;;2.13;1.90;;;;;;;8.46;91.35;97641.31;6237104;28;20229;-66
2022/09/03 04:09:21;;;;;;;2.00;1.80;;;;;;;8.46;90.84;97647.41;6231450;28;20239;-66
2022/09/03 04:12:23;;;;;;;3.70;1.70;;;;;;;8.50;90.81;97651.47;6232914;28;20377;-66
2022/09/03 04:15:25;;;;;;;2.07;1.80;;;;;;;8.47;90.69;97650.88;6231331;28;20315;-66
2022/09/03 04:18:27;;;;;;;1.70;1.60;;;;;;;8.46;90.42;97657.94;6231911;28;20231;-66
2022/09/03 04:21:30;;;;;;;2.00;1.77;;;;;;;8.46;90.86;97644.78;6234536;28;20224;-66
2022/09/03 04:24:32;;;;;;;2.13;1.50;;;;;;;8.49;90.80;97651.59;6231274;28;20227;-66
2022/09/03 04:27:34;;;;;;;2.67;1.50;;;;;;;8.48;90.46;97656.00;6214714;28;20227;-66
2022/09/03 04:30:36;;;;;;;2.13;1.53;;;;;;;8.45;90.64;97658.03;6231202;28;20384;-66
2022/09/03 04:33:39;;;;;;;2.30;1.80;;;;;;;8.41;91.11;97654.78;6230143;28;20304;-66
2022/09/03 04:36:41;;;;;;;2.33;2.13;;;;;;;8.43;90.73;97641.53;6213316;28;20258;-66
2022/09/03 04:39:43;;;;;;;3.23;1.90;;;;;;;8.43;90.61;97639.72;6231492;28;20230;-66
2022/09/03 04:42:45;;;;;;;2.10;1.90;;;;;;;8.45;91.02;97635.22;6230526;28;20777;-66
2022/09/03 04:45:47;;;;;;;2.27;2.00;;;;;;;8.51;90.89;97649.69;6229278;28;20319;-66
2022/09/03 04:48:50;;;;;;;2.50;1.87;;;;;;;8.58;90.18;97658.00;6230143;28;20247;-66
2022/09/03 04:51:52;;;;;;;2.23;2.03;;;;;;;8.61;90.07;97661.22;6231251;28;20310;-66
2022/09/03 04:54:54;;;;;;;4.80;2.00;;;;;;;8.60;90.49;97656.06;6230179;28;20277;-66
2022/09/03 04:57:58;;;;;;;2.03;1.70;;;;;;;8.62;90.13;97659.44;6229663;28;20232;-66
2022/09/03 05:01:07;;;;;;;1.60;1.50;;;;;;;8.68;90.15;97651.97;6229360;28;20247;-66
2022/09/03 05:04:09;;;;;;;1.70;1.60;;;;;;;8.69;90.36;97653.59;6229450;28;20301;-66
2022/09/03 05:07:12;;;;;;;2.33;1.70;;;;;;;8.72;90.03;97663.06;6228085;28;20485;-66
2022/09/03 05:10:19;;;;;;;2.10;1.63;;;;;;;8.70;89.79;97660.56;6231855;28;20250;-66
2022/09/03 05:13:21;;;;;;;1.97;1.77;;;;;;;8.66;90.10;97669.63;6230879;28;20275;-66
2022/09/03 05:16:25;;;;;;;2.80;1.73;;;;;;;8.69;89.83;97658.88;6229482;28;20235;-66
2022/09/03 05:19:27;;;;;;;2.23;1.77;;;;;;;8.72;90.42;97658.66;6230590;28;20720;-66
2022/09/03 05:22:29;;;;;;;2.70;1.60;;;;;;;8.75;90.69;97658.44;6228705;28;20243;-66
2022/09/03 05:25:31;;;;;;;1.73;1.63;;;;;;;8.79;90.21;97659.03;6229210;28;20235;-66
2022/09/03 05:28:36;;;;;;;2.80;1.80;;;;;;;8.74;89.86;97654.13;6228714;28;20366;-66
2022/09/03 05:31:38;;;;;;;3.23;1.90;;;;;;;8.72;90.19;97656.03;6212047;28;20652;-66
2022/09/03 05:34:41;;;;;;;2.10;1.80;;;;;;;8.75;89.57;97652.34;6229624;28;20223;-66
2022/09/03 05:37:43;;;;;;;1.77;1.53;;;;;;;8.79;90.63;97651.97;6229067;28;20314;-66
2022/09/03 05:40:45;;;;;;;2.07;1.80;;;;;;;8.86;89.89;97650.59;6229530;28;20324;-66
2022/09/03 05:43:55;;;;;;;2.37;1.90;;;;;;;8.95;90.34;97658.75;6229242;28;20229;-66
2022/09/03 05:46:57;;;;;;;1.60;1.50;;;;;;;8.99;89.82;97662.81;6228793;28;20728;-66
2022/09/03 05:49:59;;;;;;;2.03;1.83;;;;;;;9.05;89.29;97657.13;6229042;28;20582;-66
2022/09/03 05:53:01;;;;;;;3.83;1.73;;;;;;;9.12;89.76;97659.19;6228626;28;20301;-66
2022/09/03 05:56:10;;;;;;;2.60;1.80;;;;;;;9.20;89.93;97661.22;6227955;28;20231;-66
2022/09/03 05:59:12;;;;;;;2.33;1.90;;;;;;;9.28;90.11;97655.41;6228415;28;20235;-66
2022/09/03 06:02:14;;;;;;;2.47;2.17;;;;;;;9.30;89.76;97649.06;6228947;28;20232;-66
2022/09/03 06:05:20;;;;;;;2.10;1.70;;;;;;;9.32;89.02;97652.41;6228023;28;20875;-66
2022/09/03 06:08:22;;;;;;;2.27;1.90;;;;;;;9.36;88.87;97648.59;6227829;28;20696;-66
2022/09/03 06:11:28;;;;;;;1.90;1.60;;;;;;;9.43;89.77;97649.81;6210577;28;20220;-66
2022/09/03 06:14:30;;;;;;;3.60;2.10;;;;;;;9.51;89.31;97657.97;6211274;28;20615;-66
2022/09/03 06:17:32;;;;;;;4.43;1.70;;;;;;;9.59;89.64;97652.94;6232403;28;20370;-66
2022/09/03 06:20:34;;;;;;;2.43;1.97;;;;;;;9.66;88.83;97661.22;6226995;28;20330;-66
2022/09/03 06:23:38;;;;;;;2.47;1.83;;;;;;;9.76;88.99;97664.00;6227398;28;20224;-66
2022/09/03 06:26:46;;;;;;;1.97;1.77;;;;;;;9.84;88.87;97659.81;6228871;28;20746;-66
2022/09/03 06:29:48;;;;;;;2.00;1.70;;;;;;;9.92;89.07;97651.28;6210325;28;20251;-66
2022/09/03 06:32:51;;;;;;;2.20;1.97;;;;;;;10.00;88.71;97652.38;6228900;28;20234;-66
2022/09/03 06:35:58;;;;;;;2.10;1.90;;;;;;;10.10;88.73;97652.47;6228047;28;20294;-66
2022/09/03 06:39:00;;;;;;;2.10;1.67;;;;;;;10.21;89.53;97660.41;6229712;28;20224;-66
2022/09/03 06:42:03;;;;;;;1.77;1.67;;;;;;;10.34;89.36;97658.50;6228150;28;20212;-66
2022/09/03 06:45:10;;;;;;;3.03;1.70;;;;;;;10.48;88.90;97646.00;6210566;28;20707;-66
2022/09/03 06:48:13;;;;;;;1.73;1.63;;;;;;;10.58;89.20;97639.84;6211273;28;20215;-66
2022/09/03 06:51:17;;;;;;;1.87;1.77;;;;;;;10.68;88.81;97637.31;6227430;28;20227;-66
2022/09/03 06:54:19;;;;;;;2.40;1.83;;;;;;;10.82;89.06;97644.94;6227950;28;20294;-66
2022/09/03 06:57:21;;;;;;;2.37;1.93;;;;;;;10.94;88.50;97651.00;6229260;28;20307;-66
2022/09/03 07:00:23;;;;;;;1.90;1.80;;;;;;;11.08;88.39;97658.63;6232594;28;20236;-65
2022/09/03 07:03:25;;;;;;;2.30;2.00;;;;;;;11.27;88.18;97650.03;6215349;28;20279;-65
2022/09/03 07:06:35;;;;;;;2.03;1.83;;;;;;;11.48;87.70;97658.78;6215547;28;20241;-65
2022/09/03 07:09:39;;;;;;;2.30;2.10;;;;;;;11.69;86.98;97650.84;6208653;28;20238;-66
2022/09/03 07:12:45;;;;;;;2.03;1.80;;;;;;;11.94;86.80;97652.25;6231432;28;20238;-66
2022/09/03 07:15:47;;;;;;;1.63;1.53;;;;;;;12.24;86.49;97654.06;6232021;28;20380;-65
2022/09/03 07:18:50;;;;;;;2.30;2.00;;;;;;;12.61;85.11;97646.34;6215947;28;20606;-66
2022/09/03 07:21:52;;;;;;;3.83;1.60;;;;;;;13.08;83.80;97650.00;6213075;28;20283;-66
2022/09/03 07:24:54;;;;;;;2.50;1.50;;;;;;;13.51;81.64;97646.94;6233121;28;20246;-66
2022/09/03 07:27:57;;;;;;;1.90;1.53;;;;;;;14.00;80.24;97641.38;6231752;28;20227;-66
2022/09/03 07:31:10;;;;;;;5.37;1.93;;;;;;;14.49;78.13;97651.78;6232854;28;20269;-65
2022/09/03 07:34:13;;;;;;;2.67;1.77;;;;;;;14.92;75.37;97643.97;6232598;28;20338;-66
2022/09/03 07:37:17;;;;;;;1.47;1.37;;;;;;;15.39;73.68;97643.72;6232422;28;20244;-65
2022/09/03 07:40:19;;;;;;;2.30;1.80;;;;;;;15.81;71.42;97643.91;6232731;28;20649;-65
2022/09/03 07:43:21;;;;;;;1.50;1.40;;;;;;;16.16;69.53;97651.75;6230778;28;20330;-65
2022/09/03 07:46:25;;;;;;;3.30;1.63;;;;;;;16.48;68.47;97653.72;6231812;28;20644;-65
2022/09/03 07:49:28;;;;;;;3.00;1.60;;;;;;;16.85;66.79;97648.06;6234590;28;20235;-65
2022/09/03 07:52:30;;;;;;;4.27;1.50;;;;;;;17.22;64.11;97652.09;6232987;28;20738;-65
2022/09/03 07:55:32;;;;;;;2.40;1.57;;;;;;;17.68;62.89;97647.94;6232824;28;20305;-64
2022/09/03 07:58:35;;;;;;;1.30;1.20;;;;;;;18.09;61.80;97651.38;6230603;28;20242;-65
2022/09/03 08:01:49;;;;;;;5.60;1.60;;;;;;;18.46;59.54;97657.97;6232019;28;20632;-64
2022/09/03 08:04:51;;;;;;;1.60;1.50;;;;;;;18.70;59.86;97660.56;6228984;28;20327;-65
2022/09/03 08:07:53;;;;;;;2.00;1.43;;;;;;;19.07;100.00;60274.75;6229077;28;20235;-65
2022/09/03 08:11:06;;;;;;;1.87;1.40;;;;;;;-144.22;100.00;60274.75;6229894;28;20235;-63
2022/09/03 08:14:11;;;;;;;1.83;1.30;;;;;;;19.45;100.00;60274.75;6229356;28;20228;-63
2022/09/03 08:17:13;;;;;;;2.97;1.33;;;;;;;-144.22;100.00;60274.75;6229247;28;20327;-63
2022/09/03 08:20:15;;;;;;;2.10;1.80;;;;;;;-144.22;100.00;60274.75;6228574;28;20259;-64
2022/09/03 08:23:17;;;;;;;2.00;1.47;;;;;;;21.74;100.00;60274.75;6227987;28;20318;-64
2022/09/03 08:26:20;;;;;;;2.80;1.77;;;;;;;-144.22;100.00;60274.75;6228883;28;20370;-64
2022/09/03 08:29:22;;;;;;;2.40;1.80;;;;;;;-144.22;100.00;60274.75;6229863;28;20301;-63
2022/09/03 08:32:24;;;;;;;1.73;1.50;;;;;;;-144.22;100.00;60274.75;6229627;28;20262;-64
2022/09/03 08:35:26;;;;;;;2.30;1.73;;;;;;;-144.22;100.00;60274.75;6229521;28;20227;-63
2022/09/03 08:38:31;;;;;;;4.37;1.83;;;;;;;-144.22;100.00;60274.75;6229335;28;20258;-63
2022/09/03 08:41:59;;;;;;;3.53;1.57;;;;;;;-144.22;100.00;60274.75;6228265;28;20231;-64
2022/09/03 08:45:06;;;;;;;3.43;1.60;;;;;;;-144.22;100.00;60274.75;6229742;28;20326;-63
2022/09/03 08:48:18;;;;;;;2.17;1.30;;;;;;;21.26;100.00;80613.31;6227814;28;20795;-64
2022/09/03 08:51:27;;;;;;;1.60;1.50;;;;;;;-144.22;100.00;60274.75;6227623;28;20725;-64
2022/09/03 08:54:31;;;;;;;2.60;2.00;;;;;;;-144.22;100.00;60274.75;6228806;28;20240;-63
2022/09/03 08:57:42;;;;;;;5.37;2.43;;;;;;;-144.22;100.00;60274.75;6214489;28;20232;-63
2022/09/03 09:01:02;;;;;;;2.20;1.80;;;;;;;-144.22;100.00;60274.75;6229096;28;20334;-64
2022/09/03 09:04:41;;;;;;;3.77;1.80;;;;;;;22.69;100.00;60274.75;6170230;28;1181027;-64
2022/09/03 09:07:58;;;;;;;2.90;1.90;;;;;;;-144.22;100.00;60274.75;6230412;28;20358;-63
2022/09/03 09:11:18;;;;;;;3.47;2.43;;;;;;;22.47;100.00;60274.75;6229481;28;20239;-62
2022/09/03 09:15:02;;;;;;;2.43;1.60;;;;;;;-144.22;100.00;60274.75;6229738;28;20322;-63
2022/09/03 09:18:11;;;;;;;2.50;1.90;;;;;;;-144.22;100.00;60274.75;6211313;28;20590;-63
2022/09/03 09:21:28;;;;;;;1.97;1.73;;;;;;;22.62;100.00;60274.75;6227658;28;20307;-63
2022/09/03 09:24:43;;;;;;;1.60;1.50;;;;;;;-144.22;100.00;60274.75;6230587;28;20708;-63
2022/09/03 09:28:00;;;;;;;3.13;1.60;;;;;;;-144.22;100.00;60274.75;6228759;28;20681;-63
2022/09/03 09:31:06;;;;;;;3.57;1.53;;;;;;;-144.22;100.00;60274.75;6229770;28;20522;-62
2022/09/03 09:34:08;;;;;;;1.63;1.53;;;;;;;-144.22;100.00;60274.75;6228405;28;20313;-63
2022/09/03 09:37:12;;;;;;;1.97;1.40;;;;;;;-144.22;100.00;60274.75;6212231;28;20236;-63
2022/09/03 09:40:33;;;;;;;1.70;1.60;;;;;;;-144.22;100.00;60274.75;6213119;28;20322;-63
2022/09/03 09:43:36;;;;;;;3.00;1.87;;;;;;;-144.22;100.00;60274.75;6233212;28;20271;-62
2022/09/03 09:46:40;;;;;;;1.73;1.53;;;;;;;-144.22;100.00;60274.75;6228379;28;20292;-64
2022/09/03 09:49:53;;;;;;;4.45;2.08;;;;;;;32.13;100.00;60274.75;6210635;28;20266;-63
2022/09/03 09:53:13;;;;;;;1.73;1.53;;;;;;;-144.22;100.00;60274.75;6211669;28;20228;-63
2022/09/03 09:56:24;;;;;;;3.75;1.90;;;;;;;-144.22;100.00;60274.75;6228129;28;20526;-63
2022/09/03 09:59:26;;;;;;;2.40;1.57;;;;;;;-144.22;100.00;60274.75;6227662;28;20488;-63
2022/09/03 10:02:28;;;;;;;2.07;1.80;;;;;;;-144.22;100.00;60274.75;6230085;28;20239;-64
2022/09/03 10:05:39;;;;;;;2.55;1.83;;;;;;;-144.22;100.00;60274.75;6228555;28;20239;-63
2022/09/03 10:08:41;;;;;;;3.60;2.00;;;;;;;-144.22;100.00;60274.75;6228148;28;20228;-62
2022/09/03 10:12:06;;;;;;;2.50;1.65;;;;;;;-144.22;100.00;60274.75;6211665;28;20246;-64
2022/09/03 10:15:29;;;;;;;1.70;1.30;;;;;;;-144.22;100.00;60274.75;6227761;28;20228;-63
2022/09/03 10:18:54;;;;;;;2.30;1.67;;;;;;;-144.22;100.00;60274.75;6228491;28;20735;-63
2022/09/03 10:22:01;;;;;;;4.95;1.33;;;;;;;-144.22;100.00;60274.75;6232736;28;20232;-63
2022/09/03 10:25:04;;;;;;;2.10;1.13;;;;;;;-144.22;100.00;60274.75;6228179;28;20236;-63
2022/09/03 10:28:09;;;;;;;2.03;1.50;;;;;;;-144.22;100.00;60274.75;6228266;28;20597;-64
2022/09/03 10:31:35;;;;;;;1.50;1.35;;;;;;;-144.22;100.00;60274.75;6229578;28;20235;-63
2022/09/03 10:34:50;;;;;;;2.28;1.70;;;;;;;-144.22;100.00;60274.75;6233266;28;20650;-66
2022/09/03 10:38:24;;;;;;;1.92;1.52;;;;;;;-144.22;100.00;60274.75;6233138;28;20603;-63
2022/09/03 10:41:32;;;;;;;1.50;1.40;;;;;;;-144.22;100.00;60274.75;6207584;28;20635;-63
2022/09/03 10:45:03;;;;;;;2.05;1.50;;;;;;;-144.22;100.00;60274.75;6232463;28;20242;-63
2022/09/03 10:48:17;;;;;;;2.75;1.35;;;;;;;-144.22;100.00;60274.75;6226284;28;20271;-63
2022/09/03 10:52:07;;;;;;;1.70;1.60;;;;;;;-144.22;100.00;60274.75;6234340;28;20601;-63
2022/09/03 10:55:30;;;;;;;2.95;1.42;;;;;;;104.84;100.00;60274.75;6163466;28;20733;-63
2022/09/03 10:59:00;;;;;;;3.75;1.70;;;;;;;-144.22;100.00;60274.75;6233647;28;20271;-63
2022/09/03 11:02:20;;;;;;;5.53;1.88;;;;;;;-144.22;100.00;60274.75;6233147;28;20707;-63
2022/09/03 11:05:53;;;;;;;3.75;1.83;;;;;;;-144.22;100.00;60274.75;6232779;28;20359;-64
2022/09/03 11:09:13;;;;;;;3.47;1.58;;;;;;;-144.22;100.00;60274.75;6231936;28;20227;-63
2022/09/03 11:12:24;;;;;;;6.07;2.00;;;;;;;104.84;100.00;60274.75;6232698;28;20224;-63
2022/09/03 11:15:50;;;;;;;2.42;1.52;;;;;;;-144.22;100.00;60274.75;6232481;28;20344;-63
2022/09/03 11:19:04;;;;;;;3.17;1.80;;;;;;;-144.22;100.00;60274.75;6218379;28;20381;-63
2022/09/03 11:22:09;;;;;;;3.70;1.67;;;;;;;-144.22;100.00;60274.75;6231957;28;20235;-64
2022/09/03 11:25:14;;;;;;;2.45;1.58;;;;;;;29.53;100.00;60274.75;6232364;28;20231;-63
2022/09/03 11:29:08;;;;;;;1.40;1.30;;;;;;;-144.22;100.00;60274.75;6232930;28;20232;-64
2022/09/03 11:32:20;;;;;;;2.08;1.30;;;;;;;29.53;100.00;60274.75;6200317;28;20853;-63
2022/09/03 11:35:31;;;;;;;2.70;1.70;;;;;;;-144.22;100.00;60274.75;6231937;28;20232;-63
2022/09/03 11:38:36;;;;;;;3.63;1.50;;;;;;;-144.22;100.00;60274.75;6232526;28;20235;-63
2022/09/03 11:41:39;;;;;;;1.83;1.30;;;;;;;27.87;100.00;60274.75;6232287;28;20305;-63
2022/09/03 11:44:44;;;;;;;6.35;1.70;;;;;;;-144.22;100.00;60274.75;6232166;28;20227;-63
2022/09/03 11:47:53;;;;;;;1.70;1.52;;;;;;;-144.22;100.00;60274.75;6231496;28;20263;-64
2022/09/03 11:50:56;;;;;;;1.50;1.40;;;;;;;29.53;100.00;60274.75;6231484;28;20631;-64
2022/09/03 11:54:05;;;;;;;1.88;1.38;;;;;;;-144.22;100.00;60274.75;6231314;28;20235;-64
2022/09/03 11:57:21;;;;;;;1.40;1.30;;;;;;;-144.22;100.00;60274.75;6230538;28;20310;-63
2022/09/03 12:00:24;;;;;;;2.00;1.60;;;;;;;28.48;100.00;60274.75;6231607;28;20305;-63
2022/09/03 12:03:46;;;;;;;2.33;1.50;;;;;;;-144.22;100.00;60274.75;6231611;28;20262;-63
2022/09/03 12:07:15;;;;;;;1.75;1.45;;;;;;;104.84;100.00;60274.75;6231079;28;20242;-63
2022/09/03 12:10:37;;;;;;;1.90;1.27;;;;;;;29.53;100.00;60274.75;6231972;28;20281;-64
2022/09/03 12:13:45;;;;;;;1.42;1.23;;;;;;;-144.22;100.00;60274.75;6232008;28;20258;-63
2022/09/03 12:16:47;;;;;;;2.78;1.17;;;;;;;-144.22;100.00;60274.75;6232569;28;20238;-63
2022/09/03 12:19:57;;;;;;;1.92;1.48;;;;;;;-144.22;100.00;60274.75;6230781;28;20262;-63
2022/09/03 12:23:02;;;;;;;1.40;1.23;;;;;;;28.41;100.00;60274.75;6231834;28;20434;-63
2022/09/03 12:26:07;;;;;;;1.88;1.40;;;;;;;-144.22;100.00;60274.75;6229516;28;20370;-63
2022/09/03 12:29:25;;;;;;;1.20;1.10;;;;;;;-144.22;100.00;60274.75;6231392;28;20239;-63
2022/09/03 12:32:39;;;;;;;1.30;1.20;;;;;;;30.18;100.00;60274.75;6231463;28;20232;-63
2022/09/03 12:35:41;;;;;;;2.05;1.20;;;;;;;-144.22;100.00;60274.75;6230238;28;20326;-63
2022/09/03 12:39:08;;;;;;;1.40;1.10;;;;;;;104.84;100.00;60274.75;6229229;28;20671;-63
2022/09/03 12:42:24;;;;;;;2.30;1.20;;;;;;;-144.22;100.00;60274.75;6230253;28;20434;-63
2022/09/03 12:45:26;;;;;;;1.33;1.17;;;;;;;29.21;100.00;60274.75;6230509;28;20302;-64
2022/09/03 12:49:04;;;;;;;1.38;1.27;;;;;;;-144.22;100.00;60274.75;6231372;28;20319;-64
2022/09/03 12:52:57;;;;;;;1.52;1.30;;;;;;;-144.22;100.00;60274.75;6231577;28;20710;-64
2022/09/03 12:56:01;;;;;;;2.30;1.45;;;;;;;29.94;100.00;60274.75;6229336;28;20231;-63
2022/09/03 12:59:11;;;;;;;3.15;1.23;;;;;;;-144.22;100.00;60274.75;6230394;28;20322;-63
2022/09/03 13:02:21;;;;;;;6.18;1.48;;;;;;;29.53;100.00;60274.75;6230852;28;20227;-64
2022/09/03 13:05:34;;;;;;;5.50;1.10;;;;;;;-144.22;100.00;60274.75;6212330;28;20294;-64
2022/09/03 13:08:56;;;;;;;4.43;1.55;;;;;;;30.18;100.00;60274.75;6230684;28;20588;-64
2022/09/03 13:11:59;;;;;;;2.13;1.25;;;;;;;-144.22;100.00;60274.75;6230276;28;20240;-64
2022/09/03 13:15:09;;;;;;;3.03;1.33;;;;;;;30.40;100.00;60274.75;6229195;28;20762;-64
2022/09/03 13:18:47;;;;;;;1.98;1.20;;;;;;;31.43;100.00;60274.75;6229120;28;20299;-64
2022/09/03 13:22:07;;;;;;;2.20;1.30;;;;;;;-144.22;100.00;60274.75;6131606;28;20235;-64
2022/09/03 13:25:15;;;;;;;2.63;1.30;;;;;;;-144.22;100.00;60274.75;6129641;28;20247;-64
2022/09/03 13:28:39;;;;;;;3.03;1.33;;;;;;;-144.22;100.00;60274.75;6131111;28;20266;-64
2022/09/03 13:31:49;;;;;;;2.20;1.27;;;;;;;-144.22;100.00;60274.75;6129700;28;20268;-64
2022/09/03 13:34:59;;;;;;;1.77;1.20;;;;;;;-144.22;100.00;60274.75;6133693;28;20333;-64
2022/09/03 13:38:29;;;;;;;1.63;1.23;;;;;;;30.99;100.00;60274.75;6131205;28;20239;-64
2022/09/03 13:41:47;;;;;;;2.58;1.40;;;;;;;-144.22;100.00;60274.75;6114022;28;20230;-64
2022/09/03 13:44:51;;;;;;;1.48;1.27;;;;;;;-144.22;100.00;60274.75;6129383;28;20733;-64
2022/09/03 13:51:55;;;;;;;1.70;1.48;;;;;;;-144.22;100.00;60274.75;6121618;28;20532;-64
2022/09/03 13:55:15;;;;;;;3.65;1.60;;;;;;;34.72;100.00;60274.75;6167087;28;20366;-64
2022/09/03 13:58:41;;;;;;;4.07;1.42;;;;;;;-144.22;100.00;60274.75;6229650;28;20240;-64
2022/09/03 14:02:05;;;;;;;2.40;1.60;;;;;;;-144.22;100.00;60274.75;6228131;28;20269;-64
2022/09/03 14:05:30;;;;;;;2.40;1.40;;;;;;;-144.22;100.00;60274.75;6229571;28;20267;-64
2022/09/03 14:09:00;;;;;;;1.85;1.42;;;;;;;-144.22;100.00;60274.75;6229171;28;20722;-65
2022/09/03 14:12:30;;;;;;;1.27;1.17;;;;;;;-144.22;100.00;60274.75;6227573;28;20219;-65
2022/09/03 14:15:41;;;;;;;1.40;1.30;;;;;;;-144.22;100.00;60274.75;6227272;28;20767;-65
2022/09/03 14:19:05;;;;;;;1.73;1.25;;;;;;;-144.22;100.00;60274.75;6228611;28;20235;-65
2022/09/03 14:22:47;;;;;;;3.67;1.73;;;;;;;-144.22;100.00;60274.75;6228782;28;20286;-64
2022/09/03 14:25:58;;;;;;;2.22;1.40;;;;;;;-144.22;100.00;60274.75;6225958;28;20232;-64
2022/09/03 14:29:15;;;;;;;3.00;1.17;;;;;;;-144.22;100.00;60274.75;6229099;28;20318;-64
2022/09/03 14:32:33;;;;;;;2.45;1.40;;;;;;;-144.22;100.00;60274.75;6227764;28;20290;-64
2022/09/03 14:36:10;;;;;;;1.60;1.20;;;;;;;-144.22;100.00;60274.75;6228368;28;20224;-64
2022/09/03 14:39:29;;;;;;;3.53;1.20;;;;;;;-144.22;100.00;60274.75;6226863;28;20228;-65
2022/09/03 14:42:48;;;;;;;1.40;1.30;;;;;;;-144.22;100.00;60274.75;6232170;28;20239;-65
2022/09/03 14:46:20;;;;;;;1.25;1.15;;;;;;;-144.22;100.00;60274.75;6227707;28;20255;-64
2022/09/03 14:49:47;;;;;;;2.65;1.30;;;;;;;-144.22;100.00;60274.75;6229163;28;20250;-65
2022/09/03 14:53:08;;;;;;;1.25;1.15;;;;;;;-144.22;100.00;60274.75;6228888;28;20640;-64